createdAt,value
2023-01-29T00:02:05.787Z,98870.50
2023-01-29T00:05:27.092Z,98879.06
2023-01-29T00:08:36.097Z,98869.91
2023-01-29T00:11:43.500Z,98879.47
2023-01-29T00:14:52.345Z,98875.16
2023-01-29T00:17:58.872Z,98874.09
2023-01-29T00:21:04.630Z,98877.59
2023-01-29T00:24:14.909Z,98877.53
2023-01-29T00:27:20.738Z,98889.19
2023-01-29T00:30:37.708Z,98893.97
2023-01-29T00:33:51.551Z,98897.84
2023-01-29T00:37:09.153Z,98897.16
2023-01-29T00:40:16.813Z,98897.06
2023-01-29T00:43:36.339Z,98891.34
2023-01-29T00:46:44.961Z,98897.44
2023-01-29T00:49:51.668Z,98894.31
2023-01-29T00:52:57.504Z,98894.31
2023-01-29T00:56:04.158Z,98873.41
2023-01-29T00:59:10.030Z,98897.13
2023-01-29T01:02:32.404Z,98888.28
2023-01-29T01:05:39.379Z,98903.44
2023-01-29T01:08:58.519Z,98903.91
2023-01-29T01:12:06.394Z,98911.53
2023-01-29T01:15:14.055Z,98900.72
2023-01-29T01:18:23.471Z,98918.13
2023-01-29T01:21:30.216Z,98909.38
2023-01-29T01:24:39.232Z,98909.63
2023-01-29T01:27:45.876Z,98918.81
2023-01-29T01:30:51.715Z,98916.66
2023-01-29T01:34:01.083Z,98897.50
2023-01-29T01:37:07.932Z,98904.88
2023-01-29T01:40:22.926Z,98897.66
2023-01-29T01:43:30.158Z,98891.81
2023-01-29T01:46:41.029Z,98896.03
2023-01-29T01:49:51.091Z,98894.97
2023-01-29T01:53:09.589Z,98899.78
2023-01-29T01:56:24.376Z,98883.47
2023-01-29T01:59:31.113Z,98882.75
2023-01-29T02:02:49.432Z,98881.47
2023-01-29T02:06:22.783Z,98879.47
2023-01-29T02:09:39.040Z,98868.41
2023-01-29T02:12:49.350Z,98870.13
2023-01-29T02:15:55.109Z,98859.31
2023-01-29T02:19:03.773Z,98877.88
2023-01-29T02:22:56.653Z,98877.06
2023-01-29T02:26:37.453Z,98868.97
2023-01-29T02:30:06.826Z,98861.63
2023-01-29T02:33:33.238Z,98855.25
2023-01-29T02:36:53.529Z,98859.47
2023-01-29T02:40:14.981Z,98849.38
2023-01-29T02:43:41.035Z,98844.84
2023-01-29T02:47:01.549Z,98839.88
2023-01-29T02:50:22.784Z,98856.88
2023-01-29T02:53:39.383Z,98861.19
2023-01-29T02:56:56.986Z,98865.94
2023-01-29T03:00:12.464Z,98879.84
2023-01-29T03:03:31.610Z,98876.50
2023-01-29T03:06:46.194Z,98883.81
2023-01-29T03:09:58.709Z,98878.84
2023-01-29T03:13:15.745Z,98876.66
2023-01-29T03:16:34.197Z,98873.97
2023-01-29T03:19:50.194Z,98878.09
2023-01-29T03:23:13.569Z,98895.66
2023-01-29T03:26:38.232Z,98896.72
2023-01-29T03:30:11.696Z,98899.38
2023-01-29T03:33:42.310Z,98894.25
2023-01-29T03:37:01.486Z,98894.25
2023-01-29T03:40:11.496Z,98897.47
2023-01-29T03:43:36.449Z,98886.31
2023-01-29T03:46:53.630Z,98878.97
2023-01-29T03:50:10.376Z,98884.03
2023-01-29T03:53:33.004Z,98884.38
2023-01-29T03:56:58.463Z,98875.84
2023-01-29T04:00:15.327Z,98862.09
2023-01-29T04:03:53.040Z,98857.94
2023-01-29T04:07:14.546Z,98864.19
2023-01-29T04:10:31.595Z,98871.72
2023-01-29T04:13:39.155Z,98858.97
2023-01-29T04:16:55.249Z,98860.06
2023-01-29T04:20:12.314Z,98846.41
2023-01-29T04:23:27.016Z,98846.41
2023-01-29T04:27:01.008Z,98841.38
2023-01-29T04:30:29.124Z,98839.25
2023-01-29T04:33:47.776Z,98828.84
2023-01-29T04:37:11.310Z,98818.41
2023-01-29T04:40:33.343Z,98806.31
2023-01-29T04:43:58.958Z,98781.25
2023-01-29T04:47:27.825Z,98793.56
2023-01-29T04:50:43.544Z,98794.50
2023-01-29T04:54:02.787Z,98785.84
2023-01-29T04:57:25.726Z,98783.00
2023-01-29T05:00:41.429Z,98787.69
2023-01-29T05:03:55.264Z,98781.91
2023-01-29T05:07:09.163Z,98788.56
2023-01-29T05:10:22.770Z,98791.78
2023-01-29T05:13:34.523Z,98792.44
2023-01-29T05:16:50.608Z,98795.91
2023-01-29T05:19:58.361Z,98801.16
2023-01-29T05:23:05.273Z,98797.22
2023-01-29T05:26:11.101Z,98798.81
2023-01-29T05:29:15.179Z,98799.44
2023-01-29T05:32:23.512Z,98808.09
2023-01-29T05:35:30.781Z,98804.03
2023-01-29T05:38:36.546Z,98814.34
2023-01-29T05:41:43.440Z,98802.88
2023-01-29T05:44:49.239Z,98805.06
2023-01-29T05:48:03.349Z,98796.19
2023-01-29T05:51:09.381Z,98796.88
2023-01-29T05:54:16.356Z,98798.31
2023-01-29T05:57:22.371Z,98808.94
2023-01-29T06:00:29.522Z,98809.22
2023-01-29T06:03:38.095Z,98811.66
2023-01-29T06:06:44.661Z,98814.22
2023-01-29T06:09:50.528Z,98812.47
2023-01-29T06:13:12.735Z,98825.69
2023-01-29T06:16:22.404Z,98817.72
2023-01-29T06:19:31.582Z,98812.88
2023-01-29T06:22:38.005Z,98821.34
2023-01-29T06:25:44.634Z,98828.84
2023-01-29T06:28:53.537Z,98830.09
2023-01-29T06:32:00.362Z,98831.59
2023-01-29T06:35:10.442Z,98835.13
2023-01-29T06:38:17.055Z,98834.13
2023-01-29T06:41:25.826Z,98832.53
2023-01-29T06:44:32.476Z,98825.44
2023-01-29T06:47:38.260Z,98830.69
2023-01-29T06:50:47.743Z,98830.69
2023-01-29T06:53:58.816Z,98823.41
2023-01-29T06:57:05.454Z,98827.69
2023-01-29T07:00:13.717Z,98822.50
2023-01-29T07:03:20.677Z,98826.97
2023-01-29T07:06:40.745Z,98833.03
2023-01-29T07:09:50.189Z,98830.63
2023-01-29T07:12:58.895Z,98832.91
2023-01-29T07:16:10.764Z,98835.06
2023-01-29T07:19:16.768Z,98835.72
2023-01-29T07:22:26.047Z,98843.63
2023-01-29T07:25:31.828Z,98847.50
2023-01-29T07:28:41.393Z,98848.41
2023-01-29T07:31:47.319Z,98851.16
2023-01-29T07:34:53.935Z,98852.72
2023-01-29T07:38:02.289Z,98849.28
2023-01-29T07:41:09.307Z,98857.63
2023-01-29T07:44:16.197Z,98856.06
2023-01-29T07:47:22.873Z,98858.38
2023-01-29T07:50:30.493Z,98867.97
2023-01-29T07:53:39.876Z,98857.78
2023-01-29T07:56:45.629Z,98860.03
2023-01-29T07:59:52.313Z,98867.38
2023-01-29T08:03:06.992Z,98870.81
2023-01-29T08:06:14.296Z,98879.47
2023-01-29T08:09:22.725Z,98884.09
2023-01-29T08:12:29.387Z,98890.13
2023-01-29T08:19:05.291Z,98893.44
2023-01-29T08:22:11.137Z,98892.44
2023-01-29T08:25:20.535Z,98897.03
2023-01-29T08:28:26.336Z,98892.44
2023-01-29T08:31:35.889Z,98898.22
2023-01-29T08:34:41.701Z,98893.94
2023-01-29T08:37:55.088Z,98897.00
2023-01-29T08:41:05.037Z,98898.09
2023-01-29T08:44:12.153Z,98895.22
2023-01-29T08:47:18.259Z,98900.88
2023-01-29T08:50:27.228Z,98904.53
2023-01-29T08:53:33.217Z,98899.16
2023-01-29T08:56:42.546Z,98903.75
2023-01-29T08:59:48.452Z,98895.66
2023-01-29T09:02:55.804Z,98892.00
2023-01-29T09:06:01.587Z,98898.59
2023-01-29T09:09:08.822Z,98889.44
2023-01-29T09:12:19.711Z,98882.84
2023-01-29T09:15:26.949Z,98877.94
2023-01-29T09:18:34.241Z,98868.97
2023-01-29T09:21:40.832Z,98864.34
2023-01-29T09:24:46.736Z,98865.13
2023-01-29T09:27:57.708Z,98862.41
2023-01-29T09:31:05.408Z,98866.09
2023-01-29T09:34:12.167Z,98864.50
2023-01-29T09:37:19.642Z,98867.50
2023-01-29T09:40:35.752Z,98855.56
2023-01-29T09:43:55.002Z,98877.59
2023-01-29T09:47:08.025Z,98880.59
2023-01-29T09:50:29.404Z,98876.75
2023-01-29T09:53:49.721Z,98874.53
2023-01-29T09:57:06.771Z,98870.16
2023-01-29T10:00:41.600Z,98864.78
2023-01-29T10:04:47.321Z,98858.72
2023-01-29T10:08:39.422Z,98856.03
2023-01-29T10:12:03.511Z,98831.41
2023-01-29T10:15:32.018Z,98819.97
2023-01-29T10:19:27.457Z,98820.91
2023-01-29T10:22:59.999Z,98816.53
2023-01-29T10:26:16.585Z,98818.13
2023-01-29T10:29:39.250Z,98804.66
2023-01-29T10:32:44.972Z,98798.91
2023-01-29T10:36:04.656Z,98790.16
2023-01-29T10:39:21.536Z,98774.97
2023-01-29T10:42:43.289Z,98765.75
2023-01-29T10:46:07.955Z,98754.09
2023-01-29T10:49:39.841Z,98750.69
2023-01-29T10:53:23.795Z,98745.88
2023-01-29T10:56:57.647Z,98743.59
2023-01-29T11:00:16.608Z,98725.06
2023-01-29T11:03:30.628Z,98725.97
2023-01-29T11:06:39.424Z,98724.75
2023-01-29T11:10:05.135Z,98721.47
2023-01-29T11:13:20.375Z,98719.91
2023-01-29T11:16:34.578Z,98707.69
2023-01-29T11:19:47.982Z,98701.25
2023-01-29T11:22:59.556Z,98692.41
2023-01-29T11:26:20.951Z,98688.34
2023-01-29T11:29:42.193Z,98687.31
2023-01-29T11:32:52.838Z,98681.94
2023-01-29T11:35:59.523Z,98673.50
2023-01-29T11:39:27.714Z,98679.59
2023-01-29T11:42:36.935Z,98669.50
2023-01-29T11:45:44.001Z,98671.81
2023-01-29T11:48:59.274Z,98671.13
2023-01-29T11:52:15.049Z,98668.75
2023-01-29T11:55:33.091Z,98671.06
2023-01-29T11:58:50.742Z,98676.59
2023-01-29T12:01:59.629Z,98672.09
2023-01-29T12:05:18.570Z,98674.94
2023-01-29T12:08:28.356Z,98682.16
2023-01-29T12:11:38.584Z,98674.94
2023-01-29T12:14:48.954Z,98667.75
2023-01-29T12:18:17.123Z,98668.28
2023-01-29T12:21:37.803Z,98661.75
2023-01-29T12:24:55.888Z,98656.53
2023-01-29T12:28:18.430Z,98654.13
2023-01-29T12:31:42.358Z,98649.84
2023-01-29T12:34:56.964Z,98642.94
2023-01-29T12:38:19.683Z,98635.78
2023-01-29T12:41:45.746Z,98637.34
2023-01-29T12:45:00.820Z,98634.13
2023-01-29T12:48:17.537Z,98627.38
2023-01-29T12:51:32.724Z,98627.03
2023-01-29T12:54:50.244Z,98611.19
2023-01-29T12:58:02.877Z,98619.16
2023-01-29T13:01:22.291Z,98617.31
2023-01-29T13:04:42.172Z,98614.47
2023-01-29T13:07:57.716Z,98611.50
2023-01-29T13:11:13.987Z,98610.97
2023-01-29T13:14:30.387Z,98599.13
2023-01-29T13:17:46.175Z,98606.81
2023-01-29T13:20:56.461Z,98599.59
2023-01-29T13:24:12.934Z,98588.16
2023-01-29T13:27:29.888Z,98599.25
2023-01-29T13:30:40.168Z,98602.56
2023-01-29T13:33:56.764Z,98602.34
2023-01-29T13:37:14.289Z,98585.56
2023-01-29T13:40:30.398Z,98592.22
2023-01-29T13:43:43.434Z,98583.56
2023-01-29T13:47:00.616Z,98589.88
2023-01-29T13:50:13.250Z,98580.94
2023-01-29T13:53:30.235Z,98577.91
2023-01-29T13:57:01.482Z,98568.13
2023-01-29T14:00:31.214Z,98549.66
2023-01-29T14:04:06.106Z,98552.44
2023-01-29T14:07:53.354Z,98555.25
2023-01-29T14:11:37.921Z,98555.41
2023-01-29T14:15:06.615Z,98555.19
2023-01-29T14:18:25.187Z,98550.53
2023-01-29T14:21:36.438Z,98557.47
2023-01-29T14:24:46.812Z,98559.75
2023-01-29T14:27:56.598Z,98560.53
2023-01-29T14:31:03.860Z,98552.69
2023-01-29T14:34:28.431Z,98547.19
2023-01-29T14:37:41.816Z,98556.53
2023-01-29T14:40:51.376Z,98557.75
2023-01-29T14:44:41.831Z,98551.59
2023-01-29T14:48:22.982Z,98559.56
2023-01-29T14:51:35.630Z,98555.56
2023-01-29T14:54:46.373Z,98555.44
2023-01-29T14:57:54.243Z,98563.28
2023-01-29T15:01:05.545Z,98557.16
2023-01-29T15:04:26.109Z,98550.59
2023-01-29T15:07:42.695Z,98559.38
2023-01-29T15:11:16.617Z,98560.00
2023-01-29T15:14:35.784Z,98562.88
2023-01-29T15:17:58.879Z,98561.88
2023-01-29T15:21:16.547Z,98553.19
2023-01-29T15:24:22.270Z,98539.34
2023-01-29T15:27:29.089Z,98541.66
2023-01-29T15:30:40.314Z,98539.47
2023-01-29T15:33:54.322Z,98539.97
2023-01-29T15:37:03.077Z,98530.56
2023-01-29T15:40:20.201Z,98542.50
2023-01-29T15:43:29.746Z,98542.59
2023-01-29T15:46:43.222Z,98540.50
2023-01-29T15:49:50.428Z,98531.50
2023-01-29T15:53:09.232Z,98532.94
2023-01-29T15:56:21.410Z,98519.09
2023-01-29T15:59:37.160Z,98492.53
2023-01-29T16:02:44.789Z,98508.03
2023-01-29T16:05:52.011Z,98510.78
2023-01-29T16:09:00.862Z,98508.69
2023-01-29T16:12:09.400Z,98520.38
2023-01-29T16:15:33.532Z,98514.88
2023-01-29T16:18:57.910Z,98519.63
2023-01-29T16:22:11.559Z,98510.28
2023-01-29T16:25:24.247Z,98505.13
2023-01-29T16:28:34.009Z,98505.22
2023-01-29T16:31:43.093Z,98491.25
2023-01-29T16:34:59.012Z,98482.19
2023-01-29T16:38:25.121Z,98489.47
2023-01-29T16:41:39.623Z,98490.81
2023-01-29T16:44:53.344Z,98475.81
2023-01-29T16:48:29.388Z,98495.66
2023-01-29T16:51:42.652Z,98502.22
2023-01-29T16:54:48.944Z,98495.44
2023-01-29T16:57:59.914Z,98497.97
2023-01-29T17:01:12.741Z,98499.75
2023-01-29T17:04:22.894Z,98497.28
2023-01-29T17:07:30.149Z,98498.81
2023-01-29T17:10:37.828Z,98492.03
2023-01-29T17:13:49.113Z,98505.38
2023-01-29T17:17:00.004Z,98495.13
2023-01-29T17:20:18.226Z,98492.09
2023-01-29T17:23:26.418Z,98485.72
2023-01-29T17:26:35.123Z,98497.97
2023-01-29T17:29:44.494Z,98494.09
2023-01-29T17:32:50.325Z,98494.38
2023-01-29T17:36:03.888Z,98489.84
2023-01-29T17:39:22.563Z,98467.72
2023-01-29T17:42:30.555Z,98483.38
2023-01-29T17:45:38.972Z,98484.69
2023-01-29T17:48:49.467Z,98474.84
2023-01-29T17:51:56.896Z,98463.78
2023-01-29T17:55:09.861Z,98456.09
2023-01-29T17:58:33.952Z,98450.94
2023-01-29T18:01:43.223Z,98451.44
2023-01-29T18:04:51.217Z,98449.75
2023-01-29T18:07:58.049Z,98451.09
2023-01-29T18:11:09.064Z,98450.13
2023-01-29T18:14:16.436Z,98458.38
2023-01-29T18:17:24.908Z,98462.56
2023-01-29T18:20:31.731Z,98469.25
2023-01-29T18:23:37.727Z,98464.56
2023-01-29T18:26:44.909Z,98450.81
2023-01-29T18:29:51.018Z,98450.31
2023-01-29T18:33:02.906Z,98446.22
2023-01-29T18:36:11.108Z,98440.50
2023-01-29T18:39:18.163Z,98440.75
2023-01-29T18:42:24.000Z,98446.91
2023-01-29T18:45:31.429Z,98433.78
2023-01-29T18:48:42.519Z,98438.16
2023-01-29T18:51:49.482Z,98435.94
2023-01-29T18:54:55.793Z,98426.63
2023-01-29T18:58:28.398Z,98426.84
2023-01-29T19:01:37.004Z,98425.28
2023-01-29T19:04:49.376Z,98402.75
2023-01-29T19:07:55.389Z,98415.75
2023-01-29T19:11:04.180Z,98399.78
2023-01-29T19:14:10.131Z,98411.28
2023-01-29T19:17:20.986Z,98400.25
2023-01-29T19:20:32.330Z,98406.03
2023-01-29T19:23:47.164Z,98407.47
2023-01-29T19:26:53.509Z,98401.88
2023-01-29T19:30:00.680Z,98400.25
2023-01-29T19:33:06.929Z,98396.91
2023-01-29T19:36:16.445Z,98393.78
2023-01-29T19:39:22.460Z,98397.13
2023-01-29T19:42:29.053Z,98393.59
2023-01-29T19:45:50.205Z,98373.56
2023-01-29T19:48:58.910Z,98397.56
2023-01-29T19:52:15.114Z,98393.31
2023-01-29T19:55:22.772Z,98398.53
2023-01-29T19:58:28.895Z,98391.72
2023-01-29T20:01:40.370Z,98381.03
2023-01-29T20:04:48.759Z,98382.06
2023-01-29T20:07:57.988Z,98381.47
2023-01-29T20:11:05.720Z,98377.97
2023-01-29T20:14:13.402Z,98380.22
2023-01-29T20:17:20.405Z,98377.00
2023-01-29T20:20:31.081Z,98371.78
2023-01-29T20:23:42.409Z,98363.47
2023-01-29T20:26:50.458Z,98370.13
2023-01-29T20:29:56.270Z,98375.53
2023-01-29T20:33:07.086Z,98375.53
2023-01-29T20:36:16.207Z,98368.94
2023-01-29T20:39:25.831Z,98363.59
2023-01-29T20:42:32.063Z,98370.53
2023-01-29T20:45:42.064Z,98372.03
2023-01-29T20:48:49.688Z,98362.31
2023-01-29T20:51:56.740Z,98349.75
2023-01-29T20:55:05.399Z,98363.19
2023-01-29T20:58:14.332Z,98359.97
2023-01-29T21:01:23.149Z,98354.41
2023-01-29T21:04:31.563Z,98346.09
2023-01-29T21:07:37.593Z,98340.19
2023-01-29T21:10:47.326Z,98340.78
2023-01-29T21:13:55.038Z,98330.91
2023-01-29T21:17:01.852Z,98325.41
2023-01-29T21:20:10.050Z,98312.94
2023-01-29T21:23:16.711Z,98303.09
2023-01-29T21:26:25.312Z,98301.09
2023-01-29T21:29:32.235Z,98295.06
2023-01-29T21:32:38.062Z,98292.41
2023-01-29T21:35:44.644Z,98297.31
2023-01-29T21:38:50.406Z,98291.53
2023-01-29T21:42:12.006Z,98288.25
2023-01-29T21:45:18.526Z,98283.41
2023-01-29T21:48:25.148Z,98286.25
2023-01-29T21:51:31.211Z,98270.06
2023-01-29T21:54:40.084Z,98275.38
2023-01-29T21:57:49.642Z,98272.97
2023-01-29T22:00:56.396Z,98270.34
2023-01-29T22:04:02.380Z,98252.03
2023-01-29T22:07:09.041Z,98255.66
2023-01-29T22:10:16.469Z,98248.28
2023-01-29T22:13:26.121Z,98243.31
2023-01-29T22:16:32.143Z,98246.19
2023-01-29T22:19:38.837Z,98250.00
2023-01-29T22:22:45.284Z,98238.50
2023-01-29T22:25:51.906Z,98223.19
2023-01-29T22:29:02.720Z,98221.59
2023-01-29T22:32:13.446Z,98211.63
2023-01-29T22:35:19.821Z,98197.13
2023-01-29T22:38:29.237Z,98193.97
2023-01-29T22:41:36.147Z,98190.28
2023-01-29T22:44:45.372Z,98184.94
2023-01-29T22:47:51.321Z,98183.47
2023-01-29T22:51:13.149Z,98186.91
2023-01-29T22:54:19.795Z,98180.69
2023-01-29T22:57:26.399Z,98183.03
2023-01-29T23:00:34.988Z,98169.47
2023-01-29T23:03:41.627Z,98161.59
2023-01-29T23:06:47.397Z,98153.66
2023-01-29T23:09:54.003Z,98146.28
2023-01-29T23:12:59.801Z,98147.25
2023-01-29T23:16:12.104Z,98144.16
2023-01-29T23:19:17.888Z,98144.44
2023-01-29T23:22:24.524Z,98134.41
2023-01-29T23:25:50.697Z,98139.97
2023-01-29T23:28:54.711Z,98131.13
2023-01-29T23:32:03.864Z,98116.72
2023-01-29T23:35:12.091Z,98087.41
2023-01-29T23:38:17.855Z,98102.88
2023-01-29T23:41:24.624Z,98098.97
2023-01-29T23:44:30.838Z,98088.09
2023-01-29T23:47:40.076Z,98091.47
2023-01-29T23:50:45.821Z,98077.44
2023-01-29T23:53:52.465Z,98072.88
2023-01-29T23:56:58.458Z,98072.75
